In Rescue
 
Open Full Screen Window  High Contrast Mode
Wind Gusting 16 knots
10
October 25, 2021 3:58 PM CDT
Weather Information
Wind Direction
  140 °
Wind Speed
  10 kt (12 mph)
Wind Gust
  16 kt (18 mph)
Altimeter
30.10 in
Visibility
10 SM
Temperature
11° C
52° F
Dewpoint
-03° C
27° F
Humidity
38%
1hr Rain Fall
00.00 in.
24hr Rain Fall
00.00 in.
Sky Condition
Clear
VFR

METAR KMOX 252058Z AUTO 14010G16KT 10SM CLR 11/M03 A3010 RMK AO2

FAA Disclaimer: The data displayed is for advisory purposes only and is not to be used for flight planning or operations.